Terminal Aerodrome Forecast
Issued by NWS

Home | Current Version | Previous Version | Text Only | Print | Product List | Glossary On
Versions: 1 2 3 4 5 6 7 8 9 10 11 12 13 14 15 16
000
FTAK31 PAJN 230500
TAFAJN
TAF
PAJN 230525Z 2306/2406 10006KT P6SM -SHRA SCT010 BKN040 OVC080
     FM230900 VRB03KT P6SM BCFG FEW003 SCT050 SCT100
     FM231500 10006KT P6SM BKN100
     FM232100 VRB04KT P6SM OVC070
     FM240300 VRB03KT P6SM BKN120=

USA.gov is the U.S. government's official web portal to all federal, state and local government web resources and services.